createdAt,value
2022-07-29T00:03:26.500Z,18.39
2022-07-29T00:07:38.181Z,18.41
2022-07-29T00:11:49.850Z,18.26
2022-07-29T00:16:04.893Z,18.29
2022-07-29T00:20:16.916Z,18.27
2022-07-29T00:24:28.482Z,18.21
2022-07-29T00:28:40.141Z,18.16
2022-07-29T00:32:51.692Z,18.18
2022-07-29T00:37:03.758Z,18.15
2022-07-29T00:41:15.945Z,18.12
2022-07-29T00:45:27.545Z,18.12
2022-07-29T00:49:41.166Z,18.13
2022-07-29T00:53:53.719Z,18.10
2022-07-29T00:58:05.920Z,18.05
2022-07-29T01:02:17.532Z,18.05
2022-07-29T01:06:29.315Z,18.05
2022-07-29T01:10:42.957Z,18.07
2022-07-29T01:14:56.379Z,18.02
2022-07-29T01:19:48.697Z,18.00
2022-07-29T01:24:24.893Z,17.96
2022-07-29T01:28:53.275Z,17.96
2022-07-29T01:33:10.340Z,17.93
2022-07-29T01:37:44.976Z,17.89
2022-07-29T01:42:23.023Z,17.83
2022-07-29T01:46:37.933Z,17.88
2022-07-29T01:50:53.412Z,17.86
2022-07-29T01:55:10.530Z,17.84
2022-07-29T01:59:24.403Z,17.86
2022-07-29T02:03:37.269Z,17.81
2022-07-29T02:07:50.124Z,17.80
2022-07-29T02:12:04.320Z,17.78
2022-07-29T02:16:17.509Z,17.81
2022-07-29T02:20:30.897Z,17.80
2022-07-29T02:24:45.175Z,17.76
2022-07-29T02:29:00.094Z,17.79
2022-07-29T02:33:15.711Z,17.71
2022-07-29T02:37:30.093Z,17.65
2022-07-29T02:41:47.594Z,17.56
2022-07-29T02:46:01.379Z,17.53
2022-07-29T02:50:22.485Z,17.50
2022-07-29T02:54:43.297Z,17.44
2022-07-29T02:58:57.921Z,17.36
2022-07-29T03:03:16.667Z,17.27
2022-07-29T03:07:29.268Z,17.23
2022-07-29T03:11:49.865Z,17.09
2022-07-29T03:16:03.757Z,17.00
2022-07-29T03:20:15.662Z,16.89
2022-07-29T03:24:32.333Z,16.73
2022-07-29T03:28:44.868Z,16.55
2022-07-29T03:32:56.567Z,16.43
2022-07-29T03:37:10.323Z,16.37
2022-07-29T03:41:23.864Z,16.34
2022-07-29T03:45:36.701Z,16.32
2022-07-29T03:49:51.414Z,16.27
2022-07-29T03:54:09.901Z,16.04
2022-07-29T03:58:23.736Z,16.05
2022-07-29T04:02:36.663Z,16.01
2022-07-29T04:06:48.577Z,15.93
2022-07-29T04:11:01.985Z,15.96
2022-07-29T04:15:13.668Z,15.95
2022-07-29T04:19:25.342Z,15.78
2022-07-29T04:23:52.755Z,15.89
2022-07-29T04:28:05.141Z,15.89
2022-07-29T04:32:16.791Z,15.92
2022-07-29T04:36:29.911Z,15.87
2022-07-29T04:40:41.837Z,15.90
2022-07-29T04:44:53.513Z,15.99
2022-07-29T04:49:05.925Z,16.05
2022-07-29T04:53:17.666Z,16.04
2022-07-29T04:57:29.345Z,15.93
2022-07-29T05:01:41.080Z,15.95
2022-07-29T05:05:52.967Z,15.95
2022-07-29T05:10:05.105Z,15.93
2022-07-29T05:14:17.144Z,15.91
2022-07-29T05:18:29.419Z,15.99
2022-07-29T05:22:41.382Z,15.99
2022-07-29T05:26:53.059Z,16.07
2022-07-29T05:31:04.825Z,16.07
2022-07-29T05:35:16.817Z,16.14
2022-07-29T05:39:49.042Z,16.16
2022-07-29T05:43:59.949Z,16.18
2022-07-29T05:48:11.472Z,16.28
2022-07-29T05:52:23.014Z,16.36
2022-07-29T05:56:34.556Z,16.42
2022-07-29T06:00:46.471Z,16.52
2022-07-29T06:04:58.027Z,16.60
2022-07-29T06:09:12.547Z,16.75
2022-07-29T06:13:24.534Z,16.97
2022-07-29T06:17:36.088Z,17.15
2022-07-29T06:21:48.888Z,17.28
2022-07-29T06:26:01.042Z,17.46
2022-07-29T06:30:13.100Z,17.63
2022-07-29T06:34:24.650Z,17.83
2022-07-29T06:38:39.080Z,18.05
2022-07-29T06:42:54.527Z,18.39
2022-07-29T06:47:06.113Z,18.82
2022-07-29T06:51:22.976Z,19.28
2022-07-29T06:55:35.208Z,19.98
2022-07-29T06:59:46.750Z,21.26
2022-07-29T07:03:58.462Z,21.36
2022-07-29T07:08:10.146Z,21.31
2022-07-29T07:12:21.727Z,21.42
2022-07-29T07:16:33.596Z,21.86
2022-07-29T07:20:46.120Z,22.17
2022-07-29T07:24:57.679Z,22.06
2022-07-29T07:29:09.224Z,21.83
2022-07-29T07:33:20.797Z,21.48
2022-07-29T07:37:32.551Z,21.11
2022-07-29T07:41:44.084Z,20.80
2022-07-29T07:46:20.486Z,20.46
2022-07-29T07:50:32.148Z,20.27
2022-07-29T07:54:44.945Z,20.28
2022-07-29T07:58:56.518Z,20.25
2022-07-29T08:03:16.852Z,20.31
2022-07-29T08:07:30.161Z,20.40
2022-07-29T08:11:52.174Z,20.45
2022-07-29T08:16:12.972Z,20.45
2022-07-29T08:20:24.606Z,20.47
2022-07-29T08:24:45.145Z,20.49
2022-07-29T08:28:56.746Z,20.44
2022-07-29T08:33:08.323Z,20.43
2022-07-29T08:37:19.847Z,20.42
2022-07-29T08:41:32.025Z,20.55
2022-07-29T08:45:49.467Z,20.66
2022-07-29T08:50:01.026Z,20.61
2022-07-29T08:54:18.331Z,20.69
2022-07-29T08:58:36.649Z,20.74
2022-07-29T09:02:56.849Z,20.78
2022-07-29T09:07:09.959Z,20.83
2022-07-29T09:11:21.581Z,20.90
2022-07-29T09:15:33.129Z,20.98
2022-07-29T09:19:45.553Z,21.03
2022-07-29T09:24:17.536Z,20.96
2022-07-29T09:28:29.239Z,20.93
2022-07-29T09:32:59.109Z,20.89
2022-07-29T09:37:10.757Z,20.85
2022-07-29T09:41:22.271Z,20.84
2022-07-29T09:45:35.108Z,20.91
2022-07-29T09:50:00.294Z,21.02
2022-07-29T09:54:28.930Z,21.23
2022-07-29T09:58:40.609Z,21.65
2022-07-29T10:03:02.034Z,22.32
2022-07-29T10:07:13.583Z,23.22
2022-07-29T10:11:25.134Z,23.99
2022-07-29T10:15:56.737Z,25.18
2022-07-29T10:20:12.456Z,26.61
2022-07-29T10:24:29.331Z,27.47
2022-07-29T10:28:40.926Z,27.93
2022-07-29T10:33:15.693Z,27.76
2022-07-29T10:37:45.792Z,27.64
2022-07-29T10:42:29.777Z,28.19
2022-07-29T10:46:46.781Z,28.24
2022-07-29T10:51:04.836Z,28.59
2022-07-29T10:55:43.728Z,29.06
2022-07-29T11:00:17.039Z,29.00
2022-07-29T11:04:44.111Z,29.13
2022-07-29T11:09:18.390Z,29.25
2022-07-29T11:13:44.158Z,29.49
2022-07-29T11:17:59.369Z,30.17
2022-07-29T11:22:16.528Z,30.74
2022-07-29T11:26:28.419Z,31.39
2022-07-29T11:30:51.446Z,31.71
2022-07-29T11:35:38.336Z,31.75
2022-07-29T11:39:55.785Z,31.53
2022-07-29T11:44:08.956Z,31.71
2022-07-29T11:48:28.461Z,31.62
2022-07-29T11:52:49.760Z,31.52
2022-07-29T11:57:02.078Z,31.47
2022-07-29T12:01:17.738Z,31.88
2022-07-29T12:05:38.938Z,32.17
2022-07-29T12:10:01.379Z,32.50
2022-07-29T12:14:26.102Z,32.47
2022-07-29T12:18:37.921Z,32.34
2022-07-29T12:22:50.483Z,32.21
2022-07-29T12:27:02.691Z,31.59
2022-07-29T12:31:43.636Z,30.92
2022-07-29T12:36:06.131Z,30.36
2022-07-29T12:40:21.652Z,29.87
2022-07-29T12:44:53.721Z,29.39
2022-07-29T12:49:05.701Z,29.38
2022-07-29T12:53:17.951Z,29.13
2022-07-29T12:57:30.060Z,28.97
2022-07-29T13:01:42.311Z,28.62
2022-07-29T13:05:54.050Z,28.72
2022-07-29T13:10:19.101Z,28.90
2022-07-29T13:14:38.385Z,28.93
2022-07-29T13:19:03.907Z,28.85
2022-07-29T13:23:16.629Z,28.75
2022-07-29T13:27:30.260Z,28.68
2022-07-29T13:31:45.156Z,28.49
2022-07-29T13:35:57.322Z,28.35
2022-07-29T13:40:10.139Z,28.54
2022-07-29T13:44:21.910Z,28.48
2022-07-29T13:48:33.773Z,28.48
2022-07-29T13:52:45.579Z,28.35
2022-07-29T13:56:57.531Z,28.30
2022-07-29T14:01:09.968Z,28.35
2022-07-29T14:05:21.676Z,28.36
2022-07-29T14:09:37.304Z,28.29
2022-07-29T14:13:53.427Z,28.18
2022-07-29T14:18:05.283Z,28.30
2022-07-29T14:22:20.015Z,28.35
2022-07-29T14:26:35.048Z,28.30
2022-07-29T14:30:49.466Z,28.07
2022-07-29T14:35:01.275Z,27.94
2022-07-29T14:39:13.387Z,27.74
2022-07-29T14:43:25.504Z,27.70
2022-07-29T14:47:40.523Z,27.48
2022-07-29T14:51:52.345Z,27.45
2022-07-29T14:56:21.187Z,27.70
2022-07-29T15:00:38.020Z,27.73
2022-07-29T15:04:50.225Z,27.70
2022-07-29T15:09:02.315Z,27.63
2022-07-29T15:13:14.287Z,27.64
2022-07-29T15:17:26.468Z,27.58
2022-07-29T15:21:41.597Z,27.63
2022-07-29T15:26:00.607Z,27.55
2022-07-29T15:30:32.339Z,27.32
2022-07-29T15:34:52.173Z,27.38
2022-07-29T15:39:07.959Z,27.46
2022-07-29T15:43:22.943Z,27.29
2022-07-29T15:47:42.018Z,27.20
2022-07-29T15:51:58.194Z,27.10
2022-07-29T15:56:11.566Z,26.84
2022-07-29T16:00:24.571Z,26.74
2022-07-29T16:04:36.606Z,26.52
2022-07-29T16:08:48.288Z,26.44
2022-07-29T16:13:00.009Z,26.46
2022-07-29T16:17:14.841Z,26.24
2022-07-29T16:21:26.848Z,26.20
2022-07-29T16:25:59.125Z,26.23
2022-07-29T16:30:11.481Z,26.17
2022-07-29T16:34:37.598Z,26.08
2022-07-29T16:38:49.559Z,26.06
2022-07-29T16:43:01.368Z,26.01
2022-07-29T16:47:27.467Z,25.88
2022-07-29T16:51:39.551Z,25.85
2022-07-29T16:55:51.158Z,25.88
2022-07-29T17:00:05.590Z,25.76
2022-07-29T17:04:17.627Z,25.59
2022-07-29T17:08:29.527Z,25.54
2022-07-29T17:12:43.938Z,25.40
2022-07-29T17:17:01.074Z,25.38
2022-07-29T17:21:14.640Z,25.42
2022-07-29T17:25:26.807Z,25.23
2022-07-29T17:29:39.532Z,25.23
2022-07-29T17:33:51.574Z,25.21
2022-07-29T17:38:11.561Z,25.26
2022-07-29T17:42:41.349Z,25.26
2022-07-29T17:46:52.947Z,25.46
2022-07-29T17:51:04.690Z,25.51
2022-07-29T17:55:16.270Z,25.52
2022-07-29T17:59:27.797Z,25.53
2022-07-29T18:03:40.251Z,25.59
2022-07-29T18:07:51.923Z,25.66
2022-07-29T18:12:03.705Z,25.50
2022-07-29T18:16:15.321Z,25.33
2022-07-29T18:36:09.992Z,24.87
2022-07-29T18:47:12.091Z,24.57
2022-07-29T18:56:30.550Z,24.32
2022-07-29T19:00:42.167Z,24.26
2022-07-29T19:04:54.978Z,24.11
2022-07-29T19:09:08.738Z,24.00
2022-07-29T19:13:20.404Z,23.84
2022-07-29T19:17:34.431Z,23.67
2022-07-29T19:21:49.333Z,23.53
2022-07-29T19:26:01.244Z,23.50
2022-07-29T19:30:13.374Z,23.34
2022-07-29T19:34:25.034Z,23.27
2022-07-29T19:38:39.465Z,23.16
2022-07-29T19:42:52.848Z,23.00
2022-07-29T19:47:05.207Z,22.94
2022-07-29T19:51:17.416Z,22.73
2022-07-29T19:55:29.222Z,22.67
2022-07-29T19:59:41.216Z,22.55
2022-07-29T20:03:53.867Z,22.50
2022-07-29T20:08:06.315Z,22.35
2022-07-29T20:12:17.996Z,22.38
2022-07-29T20:16:29.647Z,22.34
2022-07-29T20:20:41.494Z,22.32
2022-07-29T20:24:53.121Z,22.27
2022-07-29T20:29:07.111Z,22.09
2022-07-29T20:33:18.825Z,21.99
2022-07-29T20:37:30.474Z,21.83
2022-07-29T20:41:45.120Z,21.67
2022-07-29T20:45:56.806Z,21.59
2022-07-29T20:50:11.813Z,21.40
2022-07-29T20:54:23.792Z,21.24
2022-07-29T20:58:36.512Z,21.21
2022-07-29T21:02:48.475Z,21.09
2022-07-29T21:07:00.494Z,20.98
2022-07-29T21:11:12.373Z,20.94
2022-07-29T21:15:24.142Z,20.76
2022-07-29T21:19:35.821Z,20.70
2022-07-29T21:23:47.830Z,20.60
2022-07-29T21:28:17.918Z,20.50
2022-07-29T21:32:30.542Z,20.39
2022-07-29T21:36:48.168Z,20.34
2022-07-29T21:41:01.466Z,20.27
2022-07-29T21:45:15.946Z,20.19
2022-07-29T21:49:27.595Z,20.14
2022-07-29T21:53:39.366Z,20.09
2022-07-29T21:57:51.632Z,20.01
2022-07-29T22:02:03.704Z,19.92
2022-07-29T22:06:18.148Z,19.89
2022-07-29T22:10:31.083Z,19.87
2022-07-29T22:14:42.745Z,19.85
2022-07-29T22:18:54.454Z,19.69
2022-07-29T22:23:06.086Z,19.65
2022-07-29T22:27:17.786Z,19.54
2022-07-29T22:31:29.491Z,19.54
2022-07-29T22:35:41.213Z,19.37
2022-07-29T22:39:52.916Z,19.37
2022-07-29T22:44:04.839Z,19.25
2022-07-29T22:48:16.870Z,19.18
2022-07-29T22:52:28.512Z,19.10
2022-07-29T22:56:40.221Z,19.02
2022-07-29T23:00:51.985Z,18.98
2022-07-29T23:05:04.434Z,18.83
2022-07-29T23:09:18.389Z,18.77
2022-07-29T23:13:30.034Z,18.65
2022-07-29T23:17:41.649Z,18.58
2022-07-29T23:21:54.006Z,18.53
2022-07-29T23:26:06.008Z,18.45
2022-07-29T23:30:17.605Z,18.34
2022-07-29T23:34:29.216Z,18.28
2022-07-29T23:38:41.272Z,18.19
2022-07-29T23:42:52.991Z,18.17
2022-07-29T23:47:04.752Z,18.05
2022-07-29T23:51:16.580Z,18.02
2022-07-29T23:55:37.254Z,17.89
2022-07-29T23:59:51.405Z,17.92
